Andrei Molchanov

Olheiro-Chefe - Sibir
24 Jul 2027
Sábado
Processo

Personalidade

Adaptabilidade (13) Ambição (13) Controvérsia (1) Lealdade (11) Pressão (13) Profissionalismo (1) Espírito Esportivo (4) Temperamento (18)

Perfil

Estilo de Treinamento Democrático
Licença Nacional B
Determinação 6
Gestão de Pessoas 1
Motivação 5
Disciplina 4
Satisfação no Trabalho
57%
Fadiga
0%
Função Olheiro-Chefe
Salário 14.0K p/s
Contrato 14.03.2028

Desempenho

Comportamento Bom
Eficácia do Treinamento
13%
Desenvolvimento do Jogador
10%
Prevenção de Lesões
25%
Implementação Tática
35%

Eventos Recentes

Avaliou um jogador agora
Participou de uma reunião de recrutamento agora
Avaliou um jogador agora
Avaliou um jogador 7d atrás
Observou uma partida 7d atrás
Avaliou um jogador 7d atrás
Aniversário 7d atrás
Avaliou um jogador 7d atrás

Monitorando agora

133
Jogador Clube Status Habilidade Confiança Observado Última observação Último voto
Cristian Peñate Barranquilla Ativo 94 / 101 40% 2 23.07.2027 -
Ilya Bondarenko Minsk Ativo 79 / 75 40% 1 23.07.2027 -
Thiago D'Archivio Alvarado Ativo 97 / 72 40% 2 21.07.2027 -
Luis Yanes Real Cartagena Ativo 111 / 106 40% 1 21.07.2027 -
Jean Charles Yao BATE Ativo 97 / 91 40% 1 20.07.2027 -
Carlos Cabezas Depor Ativo 78 / 84 40% 1 19.07.2027 -
Egor Grivenev BATE Ativo 88 / 86 40% 2 18.07.2027 -
Carlos Ramírez Zulia Ativo 101 / 100 40% 1 18.07.2027 -
Filip Holender Spartak Subotica Ativo 105 / 111 40% 1 17.07.2027 -
Wilmar Cordoba Valledupar Ativo 85 / 93 40% 1 17.07.2027 -
Vinicius Baiano Naxxar Lions Ativo 100 / 107 40% 1 16.07.2027 -
Lasha Ozbetelashvili Lokomotivi Ativo 63 / 73 40% 1 16.07.2027 -
Vladislav Shpitalny Sokol Ativo 80 / 91 40% 2 15.07.2027 -
Ilja Grischenko Kaluga Ativo 89 / 99 40% 1 15.07.2027 -
Saulius Mikoliunas Stumbras Ativo 87 / 82 40% 1 15.07.2027 -
Wojciech Szafranek Angusht Ativo 69 / 70 40% 3 12.07.2027 -
Lucio Castillo Colegiales Ativo 123 / 100 40% 1 12.07.2027 -
Nikita Yeremenko Tver Ativo 77 / 66 40% 2 11.07.2027 -
Alexandr Shlenkin Dinamo Bryansk Ativo 65 / 81 40% 2 11.07.2027 -
Omar Popov Dinamo St Petersburg Ativo 87 / 76 40% 5 10.07.2027 -
Danila Yezhkov Dinamo Vologda Ativo 99 / 73 40% 3 10.07.2027 -
Alexandr Konev Salyut Ativo 70 / 85 40% 2 09.07.2027 -
Maxim Sergeev Spartak Tambov Ativo 67 / 67 40% 1 09.07.2027 -
Adrian Van Rumst Legion Ativo 72 / 72 40% 2 08.07.2027 -
Sergey Guzyuk Strogino Ativo 80 / 74 40% 1 08.07.2027 -
Vyacheslav Puzikov Spartak Tambov Ativo 79 / 67 44% 1 05.07.2027 -
Ignat Kasjanov Volga Ativo 73 / 76 44% 1 14.06.2027 -
Matvey Melnikov Chertanovo Rejeitado 43 / 42 40% 2 21.01.2027 Mais informações
Islam Tlupov Spartak Nalchik Ativo 67 / 83 40% 1 21.01.2027 -
Stijn Meijer Tyumen Ativo 81 / 89 40% 2 20.01.2027 -
Artem Yarkin Dinamo Barnaul Ativo 70 / 82 40% 2 20.01.2027 -
Jakub Jakimiuk Angusht Ativo 68 / 84 40% 2 18.01.2027 -
Nikita Dorofeev Dinamo Kirov Rejeitado 79 / 75 40% 3 17.01.2027 Rejeitar
James Rodrigues Zenit Penza Rejeitado 83 / 76 40% 2 15.01.2027 Mais informações
Vladislav Agalakov Metallurg Rejeitado 65 / 69 40% 1 15.01.2027 Mais informações
Artem Stepanovich Sevastopol Rejeitado 88 / 72 40% 3 12.01.2027 Rejeitar
Mikhail Zabotkin Volna Rejeitado 84 / 88 40% 3 08.01.2027 Rejeitar
Ilja Gruznov Khimik Rejeitado 82 / 82 40% 2 08.01.2027 Mais informações
Kirill Bogdanets Volna Rejeitado 100 / 81 40% 6 06.01.2027 Rejeitar
Soslan Lysenko Spartak Nalchik Rejeitado 76 / 76 40% 2 06.01.2027 Mais informações
Dmitry Pereverzev Nart Ativo 86 / 78 40% 2 03.01.2027 -
Yury Maximov Sevastopol Ativo 71 / 88 40% 2 03.01.2027 -
Mikhail Gainov Dinamo Stavropol Ativo 84 / 77 40% 2 02.01.2027 -
Dmitry Mikhailov Kuban Holding Ativo 47 / 52 40% 2 01.01.2027 -
Daniil Arsentjev Orel Ativo 57 / 82 40% 2 01.01.2027 -
Aziz Gaziev Dinamo St Petersburg Ativo 75 / 76 40% 2 31.12.2026 -
Artem Ntumba Rubin Yalta Ativo 60 / 76 40% 1 31.12.2026 -
Alexey Baev Dinamo St Petersburg Ativo 73 / 76 40% 2 30.12.2026 -
Sergey Gaiduk Salyut Ativo 74 / 90 40% 1 30.12.2026 -
Shamil Saaduev Pobeda Ativo 91 / 79 40% 5 29.12.2026 -
Nikita Simdyankin KDV Tomsk Ativo 100 / 79 40% 5 29.12.2026 -
Nikita Chugunov Volna Ativo 86 / 65 40% 1 26.12.2026 -
Alexey Skvortsov Metallurg Ativo 70 / 76 40% 4 24.12.2026 -
Vyacheslav Krotov Ativo 78 / 79 40% 2 24.12.2026 -
Dmitry Solovjov Kuban Holding Ativo 72 / 74 40% 2 18.12.2026 -
Denis Semin Metallurg Ativo 84 / 73 40% 3 14.12.2026 -
Arseny Yurtaev Ryazan Ativo 65 / 55 40% 1 11.12.2026 -
Ruslan Gogniev Dinamo Stavropol Ativo 97 / 67 40% 1 10.12.2026 -
Pavel Popov Volna Ativo 79 / 84 40% 1 08.12.2026 -
Rashid Salimov Pobeda Ativo 73 / 78 40% 1 04.12.2026 -
Tamaz Topuria Mashuk Ativo 67 / 86 40% 1 04.12.2026 -
Arseny Vainer Nosta Ativo 68 / 73 40% 1 03.12.2026 -
Ivan Selemenev Mashuk Ativo 79 / 76 40% 1 26.11.2026 -
Alexandr Komissarov Torpedo Vladimir Ativo 55 / 71 40% 1 26.11.2026 -
Vyacheslav Purak Rubin Yalta Ativo 78 / 76 40% 1 25.11.2026 -
Evgeny Voronin Volga Ativo 91 / 92 40% 1 25.11.2026 -
Alexandr Olenev Nart Ativo 96 / 88 40% 2 24.11.2026 -
Ilja Yurchenko Dinamo Vladivostok Ativo 76 / 76 40% 1 24.11.2026 -
Magomed Nasibov Pobeda Ativo 88 / 84 40% 2 23.11.2026 -
Ilja Stefanovich Leningradets Ativo 109 / 99 40% 3 16.11.2026 -
Maxim Kutovoy Salyut Ativo 98 / 93 40% 3 15.11.2026 -
Anzor Khutov Mashuk Ativo 81 / 96 40% 1 13.11.2026 -
Stanislav Bukatov Salyut Ativo 81 / 70 40% 1 11.11.2026 -
Arseny Abdulkhalikov Dinamo Moscow Ativo 67 / 77 40% 1 09.11.2026 -
Dmitry Prokhorov Rubin Ativo 76 / 81 40% 1 07.11.2026 -
Bilal Bilalov Dinamo Kirov Ativo 97 / 70 40% 1 04.11.2026 -
Makhach Abdulkhamidov Alania Ativo 84 / 80 40% 1 03.11.2026 -
Shohnazar Norbekov Mashal Ativo 108 / 99 40% 1 30.10.2026 -
Ilja Zharov Torpedo Vladimir Ativo 58 / 66 40% 1 29.10.2026 -
Ivan Yakovlev Volna Pinsk Ativo 58 / 59 40% 2 28.10.2026 -
Timur Kim Arsenal Tula Ativo 63 / 71 40% 1 28.10.2026 -
Igor Bugaenko Orel Ativo 63 / 84 40% 2 27.10.2026 -
Maksym Shevchenko Baranovichi Ativo 79 / 84 40% 1 26.10.2026 -
Matvey Pershin Leningradets Ativo 89 / 89 40% 1 26.10.2026 -
Zakhar Terpugov Belshina Ativo 79 / 70 40% 1 25.10.2026 -
Ivan Matyushenko Alania Ativo 84 / 83 40% 1 25.10.2026 -
Toma Tabatadze Kokand 1912 Ativo 94 / 111 40% 4 24.10.2026 -
Gevork Sarkisyan Saturn Ativo 92 / 72 40% 1 23.10.2026 -
Gleb Bakharev Kaluga Ativo 98 / 75 40% 1 23.10.2026 -
Stefan Čolović Nasaf Ativo 111 / 97 40% 1 22.10.2026 -
Maxim Kravtsov Neman Ativo 100 / 98 40% 1 20.10.2026 -
Uladzimir Palitsevich Lokomotiv Gomel Ativo 81 / 83 40% 2 17.10.2026 -
Pavel Savitskiy Neman Ativo 103 / 104 40% 2 16.10.2026 -
Sanzhar Kemelbek Taraz Ativo 84 / 94 40% 1 14.10.2026 -
Roman Minaev Vitebsk Ativo 73 / 76 40% 2 10.10.2026 -
Anton Betyuzhnov Dinamo Vologda Ativo 92 / 84 40% 1 09.10.2026 -
Nikita Pogrebnev Ryazan Ativo 87 / 91 40% 1 02.10.2026 -
Shodiyor Shodiboyev Lokomotiv Ativo 74 / 85 40% 1 30.09.2026 -
Rasil Asaidulin Murom Ativo 58 / 85 40% 1 30.09.2026 -
Alexandr Podbeltsev Shirak Ativo 79 / 70 40% 2 27.09.2026 -
Dmitriy Vashkevich Lida Ativo 80 / 91 40% 1 27.09.2026 -
Nikita Khlynov Torpedo Miass Ativo 75 / 86 40% 1 26.09.2026 -
Nikos Karelis Sliema Wanderers Ativo 83 / 103 40% 1 24.09.2026 -
Motiejus Burba Kauno Zalgiris Ativo 102 / 95 40% 1 24.09.2026 -
Kirill Burov Gomel Ativo 72 / 88 40% 1 23.09.2026 -
Vladislav Chebotar Slutsk Ativo 83 / 73 40% 1 22.09.2026 -
Nikita Kireev Dinamo Vologda Ativo 93 / 91 40% 1 22.09.2026 -
Léo Ribeiro Kauno Zalgiris Ativo 96 / 89 40% 1 21.09.2026 -
Dāvis Ikaunieks Siauliai Ativo 120 / 94 40% 1 18.09.2026 -
Evgeny Markov Ural Ativo 112 / 89 40% 1 18.09.2026 -
Vladlen Anikeev Vitebsk Ativo 64 / 75 40% 1 16.09.2026 -
Vladislav Fedosov Slutsk Ativo 80 / 78 40% 1 14.09.2026 -
Henrik Ojamaa Paide Ativo 86 / 94 40% 1 12.09.2026 -
Nikita Kuzin Kaluga Ativo 68 / 76 40% 2 07.09.2026 -
Anton Penchelyuzov Spartak Tambov Ativo 70 / 74 40% 1 07.09.2026 -
Dmitriy Lutik Arsenal Dzerzhinsk Ativo 59 / 67 40% 1 01.09.2026 -
Islom Kenjaboyev Shortan Ativo 77 / 76 40% 1 01.09.2026 -
Kirill Sidorenko Bumprom Gomel Ativo 67 / 78 40% 1 30.08.2026 -
Ramazan Ibragimov Baranovichi Ativo 54 / 58 40% 1 30.08.2026 -
Nikita Golub Belshina Ativo 87 / 75 40% 2 29.08.2026 -
Izzatullo Abdulhaqov Mashal Ativo 84 / 92 40% 1 25.08.2026 -
Vladislav Pulkach Vitebsk Ativo 65 / 87 40% 2 17.08.2026 -
Rizvan Umarov Dinamo St Petersburg Ativo 97 / 83 40% 1 17.08.2026 -
Ivan Mamavko Orsha Ativo 55 / 57 40% 2 16.08.2026 -
Nazar Terpugov Volna Pinsk Ativo 61 / 69 40% 1 16.08.2026 -
Dmitriy Nizhnik Volna Pinsk Ativo 70 / 67 40% 1 12.08.2026 -
Erkebūlan Toibekov Taraz Ativo 68 / 73 40% 1 12.08.2026 -
Maxim Dosmagambetov Ativo 59 / 59 40% 1 11.08.2026 -
Ibroxim Numonov Bukhara Ativo 89 / 90 40% 1 10.08.2026 -
Andrey Solodukhin KAMAZ Ativo 69 / 71 40% 1 10.08.2026 -
Ibrohim G'anixonov Mashal Ativo 68 / 81 40% 1 09.08.2026 -
Darius Dapkus Stumbras Ativo 90 / 67 40% 1 06.08.2026 -
Ilja Porokhov Shinnik Ativo 80 / 94 40% 1 05.08.2026 -